Time;durP1;ratioP1;P1;durP2;ratioP2;P2;SDS_P1;SDS_P2;PMS_P1;PMS_P2;Temp;Humidity;BMP_temperature;BMP_pressure;BME280_temperature;BME280_humidity;BME280_pressure;Samples;Min_cycle;Max_cycle;Signal;HPM_P1;HPM_P2
2023/09/11 00:01:18;;;;;;;20.63;15.48;;;25.00;84.60;;;;;;5052194;28;20085;-80
2023/09/11 00:03:43;;;;;;;22.20;16.65;;;25.00;84.20;;;;;;5052098;28;20018;-81
2023/09/11 00:06:09;;;;;;;23.95;16.98;;;24.90;84.50;;;;;;5052172;28;20124;-80
2023/09/11 00:08:35;;;;;;;22.17;16.52;;;24.90;84.60;;;;;;5052231;28;20045;-80
2023/09/11 00:11:01;;;;;;;21.08;17.20;;;24.90;84.40;;;;;;5053113;28;20056;-80
2023/09/11 00:13:27;;;;;;;22.33;16.25;;;24.90;84.50;;;;;;5053037;28;20028;-80
2023/09/11 00:15:53;;;;;;;24.10;18.13;;;24.90;84.50;;;;;;5052039;28;20025;-80
2023/09/11 00:18:19;;;;;;;23.75;18.50;;;24.90;84.80;;;;;;5052966;28;20033;-80
2023/09/11 00:20:44;;;;;;;26.75;16.80;;;24.80;85.10;;;;;;5051809;28;20054;-80
2023/09/11 00:23:10;;;;;;;20.70;16.80;;;24.70;85.40;;;;;;5051910;28;20041;-81
2023/09/11 00:25:35;;;;;;;22.45;17.63;;;24.60;85.30;;;;;;5051943;28;20034;-80
2023/09/11 00:28:02;;;;;;;20.67;16.42;;;24.60;85.40;;;;;;5052126;28;20029;-81
2023/09/11 00:30:27;;;;;;;22.40;17.55;;;24.60;85.50;;;;;;5051743;28;20026;-80
2023/09/11 00:32:53;;;;;;;25.63;17.35;;;24.60;85.60;;;;;;5052791;28;20048;-80
2023/09/11 00:35:18;;;;;;;23.80;17.77;;;24.60;85.80;;;;;;5051845;28;20040;-81
2023/09/11 00:37:44;;;;;;;22.27;17.73;;;24.60;85.80;;;;;;5051908;28;20026;-80
2023/09/11 00:40:10;;;;;;;28.10;18.25;;;24.50;85.80;;;;;;5052439;28;20040;-80
2023/09/11 00:42:36;;;;;;;23.48;18.45;;;24.50;85.70;;;;;;5038978;28;20028;-81
2023/09/11 00:45:02;;;;;;;23.02;18.15;;;24.50;85.60;;;;;;5055603;28;20029;-80
2023/09/11 00:47:28;;;;;;;25.20;19.35;;;24.50;85.80;;;;;;5056452;28;20021;-80
2023/09/11 00:49:55;;;;;;;25.90;19.80;;;24.50;86.20;;;;;;5056319;28;20043;-80
2023/09/11 00:52:22;;;;;;;27.35;20.45;;;24.50;86.40;;;;;;5038846;28;20088;-81
2023/09/11 00:54:48;;;;;;;33.85;20.02;;;24.40;87.40;;;;;;5038815;28;20496;-80
2023/09/11 00:57:17;;;;;;;25.48;19.45;;;24.40;86.50;;;;;;5056282;28;20056;-80
2023/09/11 00:59:44;;;;;;;26.63;20.85;;;24.40;86.70;;;;;;5055273;28;20049;-80
2023/09/11 01:02:12;;;;;;;30.67;21.30;;;24.30;86.40;;;;;;5038674;28;20033;-80
2023/09/11 01:04:39;;;;;;;28.20;20.65;;;24.30;86.50;;;;;;5056153;28;20036;-80
2023/09/11 01:07:05;;;;;;;23.40;17.83;;;24.30;86.70;;;;;;5055029;28;20052;-80
2023/09/11 01:09:33;;;;;;;23.10;18.20;;;24.20;86.00;;;;;;5056020;28;20061;-80
2023/09/11 01:11:58;;;;;;;29.00;20.98;;;24.20;85.90;;;;;;5055908;28;20037;-81
2023/09/11 01:14:25;;;;;;;27.02;21.23;;;24.20;86.40;;;;;;5054977;28;20021;-80
2023/09/11 01:16:56;;;;;;;28.10;20.95;;;24.10;86.70;;;;;;5055010;28;20084;-80
2023/09/11 01:19:43;;;;;;;29.50;21.23;;;24.10;87.20;;;;;;5054911;28;20029;-81
2023/09/11 01:22:31;;;;;;;30.88;21.75;;;24.10;87.40;;;;;;5054753;28;20041;-80
2023/09/11 01:25:20;;;;;;;24.25;19.60;;;24.10;87.60;;;;;;5055861;28;20043;-80
2023/09/11 01:28:13;;;;;;;32.38;21.90;;;24.00;87.70;;;;;;5054784;28;20035;-80
2023/09/11 01:30:41;;;;;;;30.42;20.40;;;24.00;87.90;;;;;;5055716;28;20036;-80
2023/09/11 01:33:06;;;;;;;35.78;21.75;;;23.90;87.80;;;;;;5054628;28;20025;-80
2023/09/11 01:35:32;;;;;;;27.70;21.20;;;23.80;88.00;;;;;;5054577;28;20048;-80
2023/09/11 01:37:58;;;;;;;26.23;20.83;;;23.70;88.20;;;;;;5055523;28;20033;-81
2023/09/11 01:40:26;;;;;;;29.58;21.65;;;23.80;88.20;;;;;;5054419;28;20026;-80
2023/09/11 01:42:55;;;;;;;31.67;21.52;;;23.70;88.10;;;;;;5054411;28;20036;-81
2023/09/11 01:45:21;;;;;;;26.20;20.90;;;23.80;88.30;;;;;;5055339;28;20028;-80
2023/09/11 01:47:50;;;;;;;31.55;21.33;;;23.80;88.10;;;;;;5055323;28;20021;-80
2023/09/11 01:50:17;;;;;;;27.42;20.80;;;23.80;88.00;;;;;;5055249;28;20022;-81
2023/09/11 01:52:46;;;;;;;27.42;20.77;;;23.70;88.00;;;;;;5037655;28;20025;-80
2023/09/11 01:55:12;;;;;;;30.38;20.25;;;23.70;88.10;;;;;;5055154;28;20021;-80
2023/09/11 01:57:37;;;;;;;26.80;19.60;;;23.70;88.10;;;;;;5037682;28;20034;-80
2023/09/11 02:00:07;;;;;;;25.10;19.75;;;23.70;87.90;;;;;;5055071;28;20052;-80
2023/09/11 02:02:32;;;;;;;26.00;18.80;;;23.70;87.90;;;;;;5054091;28;20075;-80
2023/09/11 02:04:58;;;;;;;25.65;18.83;;;23.60;87.40;;;;;;5054009;28;20022;-80
2023/09/11 02:07:23;;;;;;;24.48;17.77;;;23.60;87.20;;;;;;5054155;28;20555;-80
2023/09/11 02:09:49;;;;;;;26.60;19.27;;;23.60;87.30;;;;;;5054004;28;20030;-81
2023/09/11 02:12:15;;;;;;;26.10;20.42;;;23.60;87.20;;;;;;5037336;28;20029;-80
2023/09/11 02:14:40;;;;;;;28.63;21.10;;;23.60;87.30;;;;;;5053783;28;20034;-80
2023/09/11 02:17:06;;;;;;;25.55;19.55;;;23.60;87.50;;;;;;5054058;28;20081;-80
2023/09/11 02:19:32;;;;;;;31.13;20.02;;;23.60;87.60;;;;;;5053841;28;20029;-80
2023/09/11 02:21:58;;;;;;;29.13;20.75;;;23.60;87.80;;;;;;5053642;28;20079;-80
2023/09/11 02:24:23;;;;;;;29.90;20.10;;;23.50;88.00;;;;;;5053578;28;20025;-80
2023/09/11 02:26:50;;;;;;;26.08;20.17;;;23.50;88.20;;;;;;5053653;28;20105;-80
2023/09/11 02:29:15;;;;;;;25.33;18.75;;;23.50;88.20;;;;;;5037095;28;20030;-80
2023/09/11 02:31:41;;;;;;;25.23;18.65;;;23.50;88.10;;;;;;5053421;28;20407;-80
2023/09/11 02:34:06;;;;;;;30.50;20.05;;;23.40;87.90;;;;;;5053268;28;20026;-80
2023/09/11 02:36:32;;;;;;;27.20;18.48;;;23.40;87.90;;;;;;5054348;28;20388;-80
2023/09/11 02:38:58;;;;;;;26.10;19.40;;;23.40;87.90;;;;;;5054341;28;20021;-80
2023/09/11 02:41:23;;;;;;;26.30;19.02;;;23.40;87.90;;;;;;5054282;28;20033;-80
2023/09/11 02:43:49;;;;;;;29.73;18.52;;;23.40;87.70;;;;;;5053210;28;20033;-80
2023/09/11 02:46:14;;;;;;;27.10;18.35;;;23.40;87.80;;;;;;5054206;28;20053;-80
2023/09/11 02:48:48;;;;;;;24.02;17.80;;;23.30;87.60;;;;;;5053292;28;20068;-80
2023/09/11 02:51:14;;;;;;;24.80;18.42;;;23.30;87.40;;;;;;5037251;28;20033;-80
2023/09/11 02:53:40;;;;;;;27.70;18.67;;;23.30;87.50;;;;;;5036748;28;20045;-80
2023/09/11 02:56:05;;;;;;;25.15;18.27;;;23.30;87.80;;;;;;5036576;28;20025;-80
2023/09/11 02:58:31;;;;;;;27.98;17.92;;;23.20;87.80;;;;;;5053980;28;20052;-80
2023/09/11 03:01:02;;;;;;;29.10;18.08;;;23.20;88.00;;;;;;5053101;28;20021;-80
2023/09/11 03:03:27;;;;;;;25.25;18.80;;;23.20;87.90;;;;;;5052194;28;20033;-80
2023/09/11 03:06:00;;;;;;;23.33;17.98;;;23.20;88.50;;;;;;5053860;28;20029;-80
2023/09/11 03:08:26;;;;;;;27.02;17.25;;;23.20;87.50;;;;;;5036906;28;20036;-80
2023/09/11 03:10:53;;;;;;;23.23;17.55;;;23.10;87.30;;;;;;5036299;28;20033;-79
2023/09/11 03:13:18;;;;;;;25.55;17.15;;;23.00;87.20;;;;;;5052771;28;20013;-80
2023/09/11 03:15:44;;;;;;;22.73;17.67;;;23.00;87.40;;;;;;5052696;28;20017;-80
2023/09/11 03:18:10;;;;;;;26.20;17.08;;;22.90;87.70;;;;;;5052720;28;20124;-80
2023/09/11 03:20:35;;;;;;;24.08;17.02;;;22.90;87.80;;;;;;5053398;28;20058;-80
2023/09/11 03:23:01;;;;;;;25.38;18.38;;;22.90;88.80;;;;;;5036125;28;20056;-80
2023/09/11 03:25:27;;;;;;;24.85;16.17;;;22.90;87.90;;;;;;5052531;28;20022;-80
2023/09/11 03:27:53;;;;;;;21.92;16.17;;;22.90;87.90;;;;;;5036076;28;20060;-80
2023/09/11 03:30:18;;;;;;;23.35;16.77;;;22.90;87.90;;;;;;5052405;28;20088;-80
2023/09/11 03:32:44;;;;;;;20.20;14.90;;;22.80;88.00;;;;;;5052490;28;20033;-80
2023/09/11 03:35:10;;;;;;;19.77;14.48;;;22.80;87.90;;;;;;5052383;28;20100;-80
2023/09/11 03:37:36;;;;;;;22.98;16.02;;;22.70;87.70;;;;;;5052356;28;20041;-80
2023/09/11 03:40:07;;;;;;;24.48;16.73;;;22.70;88.00;;;;;;5052366;28;20048;-80
2023/09/11 03:42:34;;;;;;;21.38;16.85;;;22.70;88.50;;;;;;5053366;28;20045;-80
2023/09/11 03:45:00;;;;;;;23.02;15.55;;;22.70;88.70;;;;;;5036018;28;20025;-79
2023/09/11 03:47:25;;;;;;;21.23;15.15;;;22.70;88.80;;;;;;5035781;28;20021;-79
2023/09/11 03:49:51;;;;;;;18.92;13.73;;;22.70;88.70;;;;;;5052118;28;20025;-80
2023/09/11 03:52:17;;;;;;;21.55;16.08;;;22.60;88.70;;;;;;5052220;28;20060;-80
2023/09/11 03:54:42;;;;;;;22.05;16.48;;;22.60;89.00;;;;;;5052300;28;20037;-79
2023/09/11 03:57:08;;;;;;;24.88;16.55;;;22.60;89.00;;;;;;5052264;28;20052;-80
2023/09/11 03:59:34;;;;;;;21.27;16.02;;;22.60;89.00;;;;;;5035679;28;20022;-79
2023/09/11 04:01:59;;;;;;;22.17;16.35;;;22.60;89.00;;;;;;5052165;28;20033;-80
2023/09/11 04:04:25;;;;;;;23.48;17.33;;;22.60;89.80;;;;;;5035702;28;20025;-81
2023/09/11 04:06:50;;;;;;;23.67;16.80;;;22.60;89.00;;;;;;5035584;28;20069;-80
2023/09/11 04:09:16;;;;;;;22.92;17.45;;;22.50;89.00;;;;;;5052114;28;20022;-80
2023/09/11 04:11:42;;;;;;;26.30;19.35;;;22.50;89.20;;;;;;5052946;28;20045;-80
2023/09/11 04:14:08;;;;;;;26.98;18.63;;;22.50;89.40;;;;;;5052721;28;20029;-80
2023/09/11 04:16:34;;;;;;;25.55;17.63;;;22.50;89.20;;;;;;5056003;28;20030;-80
2023/09/11 04:18:59;;;;;;;27.20;18.98;;;22.50;89.20;;;;;;5039597;28;20029;-80
2023/09/11 04:21:25;;;;;;;24.50;17.83;;;22.50;89.50;;;;;;5055794;28;20057;-80
2023/09/11 04:23:51;;;;;;;29.52;18.40;;;22.50;89.40;;;;;;5056002;28;20089;-80
2023/09/11 04:26:16;;;;;;;28.15;19.17;;;22.50;89.40;;;;;;5055804;28;20037;-80
2023/09/11 04:28:42;;;;;;;26.88;18.98;;;22.50;89.30;;;;;;5039326;28;20026;-80
2023/09/11 04:31:08;;;;;;;22.92;17.60;;;22.50;89.60;;;;;;5056677;28;20093;-80
2023/09/11 04:33:35;;;;;;;23.42;17.15;;;22.50;89.30;;;;;;5055699;28;20029;-80
2023/09/11 04:36:01;;;;;;;25.60;18.67;;;22.40;88.90;;;;;;5055855;28;20025;-80
2023/09/11 04:38:26;;;;;;;25.98;18.63;;;22.40;89.00;;;;;;5055906;28;20048;-80
2023/09/11 04:40:56;;;;;;;28.50;19.65;;;22.40;89.30;;;;;;5055733;28;20093;-80
2023/09/11 04:43:23;;;;;;;29.95;19.50;;;22.30;89.40;;;;;;5039155;28;20029;-80
2023/09/11 04:45:49;;;;;;;24.35;18.83;;;22.30;89.60;;;;;;5038957;28;20029;-80
2023/09/11 04:48:14;;;;;;;26.35;20.08;;;22.40;89.70;;;;;;5055582;28;20045;-79
2023/09/11 04:50:40;;;;;;;23.80;18.45;;;22.40;89.50;;;;;;5055424;28;20083;-79
2023/09/11 04:53:05;;;;;;;25.60;18.25;;;22.30;89.40;;;;;;5056340;28;20112;-79
2023/09/11 04:55:31;;;;;;;27.85;18.13;;;22.30;89.40;;;;;;5055277;28;20097;-80
2023/09/11 04:57:57;;;;;;;24.73;17.50;;;22.30;89.10;;;;;;5038809;28;20038;-80
2023/09/11 05:00:22;;;;;;;27.17;19.08;;;22.30;88.90;;;;;;5055353;28;20018;-79
2023/09/11 05:02:50;;;;;;;29.40;18.67;;;22.20;88.90;;;;;;5055138;28;20480;-79
2023/09/11 05:05:15;;;;;;;29.77;20.02;;;22.20;89.00;;;;;;5055231;28;20028;-79
2023/09/11 05:07:41;;;;;;;26.30;18.15;;;22.20;89.30;;;;;;5056079;28;20049;-80
2023/09/11 05:10:08;;;;;;;26.15;18.35;;;22.20;89.60;;;;;;5055043;28;20105;-79
2023/09/11 05:12:34;;;;;;;23.77;18.27;;;22.10;89.40;;;;;;5055152;28;20116;-79
2023/09/11 05:14:59;;;;;;;23.02;17.92;;;22.10;89.50;;;;;;5055229;28;20025;-78
2023/09/11 05:17:25;;;;;;;25.73;17.27;;;22.10;89.60;;;;;;5054949;28;20022;-79
2023/09/11 05:19:51;;;;;;;27.45;17.80;;;22.00;89.50;;;;;;5054758;28;20029;-79
2023/09/11 05:22:17;;;;;;;23.75;17.45;;;22.00;89.70;;;;;;5055073;28;20034;-79
2023/09/11 05:24:42;;;;;;;28.10;18.42;;;21.90;89.90;;;;;;5054858;28;20041;-79
2023/09/11 05:27:08;;;;;;;30.45;18.05;;;21.90;90.00;;;;;;5054240;28;20033;-80
2023/09/11 05:29:33;;;;;;;25.02;18.05;;;21.90;90.00;;;;;;5038190;28;20029;-80
2023/09/11 05:31:59;;;;;;;28.77;19.75;;;21.90;90.00;;;;;;5038024;28;20068;-80
2023/09/11 05:34:24;;;;;;;28.50;18.45;;;21.90;90.10;;;;;;5038061;28;20029;-80
2023/09/11 05:36:50;;;;;;;26.02;18.02;;;21.90;90.10;;;;;;5055655;28;20040;-79
2023/09/11 05:39:16;;;;;;;28.83;17.85;;;21.90;90.10;;;;;;5054625;28;20048;-80
2023/09/11 05:41:41;;;;;;;26.73;17.70;;;21.90;90.00;;;;;;5054601;28;20033;-79
2023/09/11 05:44:07;;;;;;;22.98;16.73;;;22.00;90.00;;;;;;5037965;28;20041;-79
2023/09/11 05:46:33;;;;;;;31.13;19.63;;;22.00;90.00;;;;;;5037838;28;20040;-79
2023/09/11 05:48:58;;;;;;;24.85;18.13;;;21.90;90.10;;;;;;5054531;28;20030;-79
2023/09/11 05:51:24;;;;;;;28.35;18.40;;;22.00;90.20;;;;;;5054231;28;20084;-79
2023/09/11 05:53:49;;;;;;;25.10;18.10;;;22.00;90.20;;;;;;5054254;28;20022;-79
2023/09/11 05:56:16;;;;;;;29.17;18.98;;;22.00;90.20;;;;;;5055254;28;20030;-80
2023/09/11 05:58:41;;;;;;;26.77;18.38;;;22.00;90.10;;;;;;5054127;28;20030;-79
2023/09/11 06:01:07;;;;;;;27.95;17.80;;;22.10;90.10;;;;;;5054152;28;20017;-79
2023/09/11 06:03:33;;;;;;;24.27;17.77;;;22.10;90.10;;;;;;5055048;28;20037;-79
2023/09/11 06:06:01;;;;;;;25.17;17.73;;;22.10;90.10;;;;;;5055139;28;20358;-79
2023/09/11 06:08:27;;;;;;;26.10;18.13;;;22.10;90.10;;;;;;5037777;28;20036;-79
2023/09/11 06:10:52;;;;;;;27.23;18.48;;;22.10;90.20;;;;;;5053863;28;20026;-79
2023/09/11 06:13:18;;;;;;;32.35;18.05;;;22.20;90.30;;;;;;5037384;28;20447;-80
2023/09/11 06:15:44;;;;;;;25.83;17.98;;;22.20;90.30;;;;;;5053848;28;20048;-79
2023/09/11 06:18:09;;;;;;;25.30;18.65;;;22.20;90.30;;;;;;5037379;28;20044;-79
2023/09/11 06:20:35;;;;;;;26.45;18.60;;;22.20;90.50;;;;;;5053455;28;20496;-79
2023/09/11 06:23:01;;;;;;;26.92;18.67;;;22.30;90.70;;;;;;5053832;28;20033;-79
2023/09/11 06:25:27;;;;;;;23.83;17.20;;;22.30;90.80;;;;;;5054602;28;20028;-78
2023/09/11 06:27:52;;;;;;;24.88;16.35;;;22.30;90.80;;;;;;5036960;28;20447;-79
2023/09/11 06:30:18;;;;;;;24.42;16.30;;;22.40;90.70;;;;;;5054455;28;20029;-79
2023/09/11 06:32:44;;;;;;;24.77;15.90;;;22.40;90.60;;;;;;5037047;28;20049;-79
2023/09/11 06:35:10;;;;;;;22.38;15.30;;;22.40;90.50;;;;;;5053286;28;20084;-79
2023/09/11 06:37:37;;;;;;;27.15;15.65;;;22.40;90.60;;;;;;5053587;28;20026;-79
2023/09/11 06:40:07;;;;;;;24.77;14.95;;;22.40;90.70;;;;;;5053170;28;20040;-79
2023/09/11 06:42:34;;;;;;;22.65;15.80;;;22.40;90.60;;;;;;5054353;28;20026;-79
2023/09/11 06:44:59;;;;;;;22.60;15.73;;;22.40;90.60;;;;;;5054299;28;20052;-80
2023/09/11 06:47:25;;;;;;;22.63;16.17;;;22.40;90.70;;;;;;5053233;28;20030;-80
2023/09/11 06:49:50;;;;;;;28.42;16.35;;;22.40;90.70;;;;;;5053223;28;20087;-80
2023/09/11 06:52:17;;;;;;;25.65;15.95;;;22.50;90.70;;;;;;5054118;28;20085;-79
2023/09/11 06:54:43;;;;;;;25.20;16.85;;;22.40;90.70;;;;;;5053081;28;20025;-79
2023/09/11 06:57:08;;;;;;;25.48;16.67;;;22.40;90.70;;;;;;5054037;28;20040;-77
2023/09/11 06:59:34;;;;;;;28.75;17.58;;;22.50;90.90;;;;;;5036479;28;20029;-78
2023/09/11 07:01:59;;;;;;;29.08;17.92;;;22.50;90.90;;;;;;5053004;28;20094;-77
2023/09/11 07:04:25;;;;;;;26.17;17.70;;;22.50;90.90;;;;;;5052880;28;20052;-76
2023/09/11 07:06:51;;;;;;;27.88;17.65;;;22.50;90.80;;;;;;5036281;28;20499;-79
2023/09/11 07:09:17;;;;;;;28.50;19.27;;;22.50;90.80;;;;;;5036397;28;20029;-79
2023/09/11 07:11:42;;;;;;;34.03;19.45;;;22.50;91.00;;;;;;5052668;28;20101;-78
2023/09/11 07:14:12;;;;;;;23.83;17.40;;;22.60;91.10;;;;;;5036214;28;20018;-78
2023/09/11 07:16:38;;;;;;;30.95;18.75;;;22.60;91.00;;;;;;5052683;28;20059;-79
2023/09/11 07:19:04;;;;;;;25.55;17.67;;;22.70;90.90;;;;;;5052708;28;20028;-78
2023/09/11 07:21:29;;;;;;;25.65;16.98;;;22.70;90.80;;;;;;5052466;28;20049;-79
2023/09/11 07:23:55;;;;;;;23.52;17.13;;;22.70;90.80;;;;;;5036212;28;20130;-79
2023/09/11 07:26:21;;;;;;;25.45;15.52;;;22.80;90.60;;;;;;5052675;28;20033;-79
2023/09/11 07:28:58;;;;;;;28.52;18.10;;;22.80;90.50;;;;;;5052528;28;20543;-78
2023/09/11 07:31:24;;;;;;;29.77;19.70;;;22.90;90.60;;;;;;5052438;28;20030;-79
2023/09/11 07:33:51;;;;;;;26.45;16.77;;;22.90;90.90;;;;;;5053358;28;20018;-78
2023/09/11 07:36:20;;;;;;;31.08;17.30;;;23.00;90.80;;;;;;5052381;28;20113;-78
2023/09/11 07:38:46;;;;;;;23.95;16.48;;;23.10;90.90;;;;;;5052471;28;20037;-79
2023/09/11 07:41:17;;;;;;;24.52;16.45;;;23.10;90.60;;;;;;5052357;28;20036;-79
2023/09/11 07:43:46;;;;;;;24.58;16.38;;;23.10;90.30;;;;;;5035764;28;20032;-78
2023/09/11 07:46:12;;;;;;;31.95;17.25;;;23.30;90.40;;;;;;5052319;28;20489;-79
2023/09/11 07:48:37;;;;;;;22.42;15.52;;;23.30;90.40;;;;;;5035934;28;20108;-78
2023/09/11 07:51:03;;;;;;;22.55;13.02;;;23.40;90.40;;;;;;5035548;28;20026;-79
2023/09/11 07:53:29;;;;;;;19.27;12.50;;;23.40;90.00;;;;;;5035821;28;20021;-79
2023/09/11 07:55:54;;;;;;;22.48;11.60;;;23.40;88.70;;;;;;5052241;28;20029;-79
2023/09/11 07:58:20;;;;;;;17.02;11.27;;;23.40;88.50;;;;;;5035596;28;20032;-78
2023/09/11 08:00:46;;;;;;;19.25;11.55;;;23.50;88.70;;;;;;5052210;28;20081;-79
2023/09/11 08:03:11;;;;;;;16.42;10.63;;;23.50;89.50;;;;;;5052071;28;20060;-78
2023/09/11 08:05:37;;;;;;;17.98;10.10;;;23.60;88.90;;;;;;5052332;28;20034;-79
2023/09/11 08:08:03;;;;;;;18.05;10.68;;;23.60;88.50;;;;;;5053173;28;20029;-79
2023/09/11 08:10:29;;;;;;;17.98;9.98;;;23.70;87.20;;;;;;5035569;28;20455;-79
2023/09/11 08:12:55;;;;;;;15.75;9.82;;;23.80;88.10;;;;;;5052128;28;20021;-79
2023/09/11 08:15:21;;;;;;;14.10;10.00;;;23.80;88.20;;;;;;5052069;28;20048;-79
2023/09/11 08:17:47;;;;;;;13.30;9.88;;;23.90;87.70;;;;;;5052240;28;20026;-79
2023/09/11 08:20:14;;;;;;;16.42;10.00;;;24.00;87.80;;;;;;5051793;28;20086;-79
2023/09/11 08:22:41;;;;;;;16.17;10.35;;;24.00;86.90;;;;;;5052951;28;20014;-79
2023/09/11 08:25:10;;;;;;;19.02;10.32;;;24.00;86.20;;;;;;5035649;28;20041;-79
2023/09/11 08:27:36;;;;;;;16.50;10.95;;;24.10;86.90;;;;;;5035934;28;20081;-79
2023/09/11 08:30:03;;;;;;;17.27;10.40;;;24.20;88.60;;;;;;5051869;28;20029;-79
2023/09/11 08:32:29;;;;;;;18.15;10.65;;;24.30;87.70;;;;;;5052820;28;20026;-79
2023/09/11 08:34:54;;;;;;;15.30;10.88;;;24.30;88.30;;;;;;5035370;28;20386;-79
2023/09/11 08:37:24;;;;;;;17.75;11.95;;;24.40;87.20;;;;;;5035311;28;20177;-79
2023/09/11 08:39:50;;;;;;;18.77;11.75;;;24.60;87.10;;;;;;5051880;28;20025;-79
2023/09/11 08:42:15;;;;;;;17.73;12.27;;;24.60;86.40;;;;;;5051744;28;20033;-79
2023/09/11 08:44:41;;;;;;;19.40;12.35;;;24.70;86.10;;;;;;5051769;28;20029;-79
2023/09/11 08:47:08;;;;;;;20.17;12.18;;;24.80;84.70;;;;;;5035254;28;20029;-79
2023/09/11 08:49:48;;;;;;;22.27;13.88;;;24.90;84.90;;;;;;5051767;28;20048;-79
2023/09/11 08:52:15;;;;;;;20.88;13.00;;;24.90;83.60;;;;;;5051698;28;20093;-79
2023/09/11 08:54:48;;;;;;;20.17;12.45;;;25.00;83.90;;;;;;5035223;28;20179;-79
2023/09/11 08:57:15;;;;;;;17.05;12.05;;;25.10;83.00;;;;;;5052824;28;20056;-79
2023/09/11 08:59:44;;;;;;;21.02;13.57;;;25.20;83.50;;;;;;5051619;28;20044;-79
2023/09/11 09:02:11;;;;;;;20.27;12.65;;;25.20;82.70;;;;;;5054625;28;20047;-79
2023/09/11 09:04:40;;;;;;;20.60;13.18;;;25.20;82.20;;;;;;5038603;28;20035;-79
2023/09/11 09:07:09;;;;;;;20.33;13.55;;;25.30;82.60;;;;;;5056112;28;20021;-79
2023/09/11 09:09:35;;;;;;;23.20;13.38;;;25.40;82.10;;;;;;5055212;28;20033;-79
2023/09/11 09:12:02;;;;;;;23.73;13.90;;;25.50;82.10;;;;;;5056023;28;20065;-79
2023/09/11 09:14:29;;;;;;;21.70;13.50;;;25.60;82.20;;;;;;5038668;28;20025;-79
2023/09/11 09:16:56;;;;;;;19.38;13.80;;;25.70;81.30;;;;;;5055015;28;20093;-79
2023/09/11 09:19:22;;;;;;;19.70;13.57;;;25.80;81.50;;;;;;5054964;28;20018;-79
2023/09/11 09:22:06;;;;;;;18.63;13.90;;;25.80;80.90;;;;;;5054741;28;20045;-80
2023/09/11 09:24:35;;;;;;;22.63;13.35;;;25.90;79.80;;;;;;5055864;28;20100;-80
2023/09/11 09:27:03;;;;;;;21.45;13.45;;;25.90;80.20;;;;;;5038168;28;20052;-80
2023/09/11 09:29:39;;;;;;;21.92;12.75;;;26.00;79.60;;;;;;5054840;28;20036;-80
2023/09/11 09:32:06;;;;;;;23.00;14.15;;;26.10;80.60;;;;;;5054681;28;20041;-79
2023/09/11 09:34:33;;;;;;;20.10;12.70;;;26.20;80.30;;;;;;5054538;28;20072;-79
2023/09/11 09:36:59;;;;;;;22.08;13.43;;;26.20;79.80;;;;;;5054534;28;20048;-80
2023/09/11 09:39:28;;;;;;;22.77;12.32;;;26.30;80.30;;;;;;5054570;28;20017;-79
2023/09/11 09:41:55;;;;;;;17.33;11.60;;;26.40;80.00;;;;;;5054690;28;20032;-80
2023/09/11 09:44:39;;;;;;;17.75;11.50;;;26.50;78.70;;;;;;5054586;28;20025;-80
2023/09/11 09:47:09;;;;;;;16.08;10.70;;;26.70;78.30;;;;;;5054360;28;20032;-80
2023/09/11 09:49:57;;;;;;;17.60;10.63;;;26.80;78.50;;;;;;5055509;28;20030;-80
2023/09/11 09:52:27;;;;;;;17.58;11.13;;;26.80;78.20;;;;;;5055307;28;20029;-80
2023/09/11 09:54:59;;;;;;;17.60;11.50;;;27.00;78.10;;;;;;5038007;28;20030;-80
2023/09/11 09:57:26;;;;;;;15.40;9.95;;;27.10;77.40;;;;;;5054225;28;20022;-79
2023/09/11 09:59:55;;;;;;;18.90;10.63;;;27.20;76.90;;;;;;5055138;28;20052;-80
2023/09/11 10:02:27;;;;;;;17.58;10.35;;;27.20;76.20;;;;;;5054154;28;20025;-80
2023/09/11 10:04:57;;;;;;;14.70;9.63;;;27.40;75.60;;;;;;5055080;28;20025;-80
2023/09/11 10:07:41;;;;;;;15.25;9.98;;;27.40;75.70;;;;;;5054110;28;20022;-81
2023/09/11 10:10:25;;;;;;;13.48;10.10;;;27.40;74.00;;;;;;5055050;28;20097;-80
2023/09/11 10:13:09;;;;;;;17.40;10.50;;;27.50;74.70;;;;;;5053723;28;20025;-80
2023/09/11 10:15:37;;;;;;;14.30;9.25;;;27.60;75.10;;;;;;5053843;28;20113;-80
2023/09/11 10:18:07;;;;;;;15.77;9.98;;;27.70;75.60;;;;;;5053741;28;20026;-80
2023/09/11 10:20:33;;;;;;;13.63;9.48;;;27.90;74.60;;;;;;5053504;28;20041;-79
2023/09/11 10:23:00;;;;;;;14.23;8.45;;;27.80;73.40;;;;;;5053757;28;20048;-80
2023/09/11 10:25:39;;;;;;;13.20;8.02;;;27.90;72.70;;;;;;5054646;28;20037;-80
2023/09/11 10:28:13;;;;;;;12.20;8.30;;;28.00;73.10;;;;;;5054621;28;20028;-79
2023/09/11 10:30:52;;;;;;;10.82;6.68;;;28.10;73.20;;;;;;5053480;28;20033;-80
2023/09/11 10:33:24;;;;;;;11.60;7.25;;;28.20;70.00;;;;;;5053517;28;20060;-80
2023/09/11 10:35:56;;;;;;;10.88;7.60;;;28.30;71.50;;;;;;5053453;28;20029;-79
2023/09/11 10:38:22;;;;;;;12.02;7.95;;;28.40;71.80;;;;;;5054470;28;20022;-79
2023/09/11 10:40:49;;;;;;;11.63;7.78;;;28.50;71.30;;;;;;5036826;28;20030;-79
2023/09/11 10:43:15;;;;;;;10.65;7.30;;;28.60;70.20;;;;;;5053373;28;20026;-79
2023/09/11 10:45:41;;;;;;;11.40;7.25;;;28.60;70.60;;;;;;5054264;28;20060;-80
2023/09/11 10:48:24;;;;;;;9.52;6.50;;;28.60;69.70;;;;;;5053370;28;20052;-79
2023/09/11 10:50:50;;;;;;;10.32;7.15;;;28.60;68.70;;;;;;5053232;28;20026;-80
2023/09/11 10:53:15;;;;;;;8.70;5.88;;;28.60;68.90;;;;;;5036612;28;20033;-79
2023/09/11 10:55:41;;;;;;;8.48;5.28;;;28.70;68.40;;;;;;5053126;28;20041;-78
2023/09/11 10:58:07;;;;;;;8.68;5.60;;;28.80;68.50;;;;;;5052961;28;20056;-79
2023/09/11 11:00:40;;;;;;;12.43;6.15;;;28.90;67.50;;;;;;5053101;28;20033;-79
2023/09/11 11:03:06;;;;;;;12.80;6.97;;;29.00;67.90;;;;;;5053956;28;20033;-79
2023/09/11 11:05:32;;;;;;;12.60;6.95;;;28.90;67.40;;;;;;5053005;28;20037;-79
2023/09/11 11:07:58;;;;;;;9.98;7.28;;;28.80;68.30;;;;;;5036518;28;20032;-80
2023/09/11 11:10:25;;;;;;;11.32;6.90;;;28.90;67.50;;;;;;5052830;28;20060;-80
2023/09/11 11:13:08;;;;;;;11.25;7.28;;;29.00;67.70;;;;;;5053821;28;20119;-81
2023/09/11 11:15:34;;;;;;;12.88;7.60;;;29.10;67.60;;;;;;5053770;28;20051;-80
2023/09/11 11:18:13;;;;;;;9.18;6.72;;;29.10;66.70;;;;;;5052814;28;20028;-80
2023/09/11 11:21:11;;;;;;;11.27;6.22;;;29.10;66.90;;;;;;5052718;28;20029;-81
2023/09/11 11:24:00;;;;;;;9.55;5.78;;;29.20;66.40;;;;;;5019893;28;20050;-80
2023/09/11 11:26:29;;;;;;;9.90;6.15;;;29.30;67.00;;;;;;5053617;28;20036;-81
2023/09/11 11:28:57;;;;;;;10.13;6.88;;;29.40;67.20;;;;;;5053547;28;20026;-80
2023/09/11 11:31:23;;;;;;;11.13;6.85;;;29.50;68.20;;;;;;5053544;28;20025;-80
2023/09/11 11:33:50;;;;;;;10.30;6.80;;;29.60;67.10;;;;;;5053379;28;20029;-80
2023/09/11 11:36:17;;;;;;;10.45;6.93;;;29.70;66.80;;;;;;5052480;28;20068;-80
2023/09/11 11:38:43;;;;;;;12.75;7.57;;;29.80;66.80;;;;;;5052476;28;20021;-80
2023/09/11 11:41:10;;;;;;;12.95;7.65;;;29.80;65.30;;;;;;5052463;28;20032;-81
2023/09/11 11:43:36;;;;;;;14.43;8.30;;;29.80;65.80;;;;;;5052314;28;20032;-80
2023/09/11 11:46:06;;;;;;;11.60;7.78;;;29.80;66.30;;;;;;5052497;28;20089;-80
2023/09/11 11:48:33;;;;;;;12.68;9.20;;;29.90;66.50;;;;;;5052292;28;20025;-80
2023/09/11 11:50:59;;;;;;;12.38;8.15;;;29.80;65.50;;;;;;5035842;28;20033;-81
2023/09/11 11:53:25;;;;;;;12.32;8.32;;;29.70;66.50;;;;;;5052315;28;20017;-82
2023/09/11 11:55:54;;;;;;;10.93;7.47;;;29.70;65.50;;;;;;5052224;28;20014;-81
2023/09/11 11:58:19;;;;;;;11.73;7.75;;;29.80;65.80;;;;;;5052180;28;20036;-81
2023/09/11 12:01:02;;;;;;;11.20;7.85;;;29.90;65.90;;;;;;5052140;28;20029;-81
2023/09/11 12:03:30;;;;;;;14.95;8.05;;;30.00;66.30;;;;;;5035663;28;20021;-82
2023/09/11 12:05:58;;;;;;;12.05;7.93;;;30.00;64.60;;;;;;5053147;28;20031;-81
2023/09/11 12:08:24;;;;;;;13.27;7.40;;;29.80;65.80;;;;;;5035802;28;20049;-82
2023/09/11 12:10:50;;;;;;;11.73;7.93;;;29.80;64.60;;;;;;5052986;28;20038;-81
2023/09/11 12:13:24;;;;;;;13.15;8.40;;;29.60;65.70;;;;;;5053072;28;20369;-82
2023/09/11 12:15:54;;;;;;;12.77;8.18;;;29.60;67.00;;;;;;5052189;28;20026;-81
2023/09/11 12:18:22;;;;;;;11.20;6.63;;;29.50;66.30;;;;;;5052129;28;20028;-81
2023/09/11 12:20:58;;;;;;;10.82;7.25;;;29.40;65.60;;;;;;5052809;28;20026;-80
2023/09/11 12:23:24;;;;;;;12.27;7.90;;;29.40;65.60;;;;;;5052034;28;20040;-79
2023/09/11 12:25:51;;;;;;;12.23;7.45;;;29.30;65.10;;;;;;5051952;28;20030;-80
2023/09/11 12:28:18;;;;;;;8.75;6.65;;;29.60;65.80;;;;;;5052908;28;20025;-79
2023/09/11 12:30:44;;;;;;;10.43;6.35;;;29.70;65.00;;;;;;5052835;28;20034;-79